Time;durP1;ratioP1;P1;durP2;ratioP2;P2;SDS_P1;SDS_P2;PMS_P1;PMS_P2;Temp;Humidity;BMP_temperature;BMP_pressure;BME280_temperature;BME280_humidity;BME280_pressure;Samples;Min_cycle;Max_cycle;Signal;HPM_P1;HPM_P2
2023/03/18 00:00:08;;;;;;;;;;;;;;;;;;2066623;28;19917;-89
2023/03/18 00:01:09;;;;;;;;;;;;;;;;;;2067780;28;20317;-89
2023/03/18 00:02:10;;;;;;;;;;;;;;;;;;1736192;28;10000340;-89
2023/03/18 00:03:10;;;;;;;;;;;;;;;;;;2081890;28;20113;-89
2023/03/18 00:04:11;;;;;;;;;;;;;;;;;;2073771;28;20008;-89
2023/03/18 00:05:12;;;;;;;;;;;;;;;;;;2065363;28;19971;-90
2023/03/18 00:06:14;;;;;;;;;;;;;;;;;;2065612;28;19914;-88
2023/03/18 00:07:15;;;;;;;;;;;;;;;;;;2066745;28;20444;-88
2023/03/18 00:08:15;;;;;;;;;;;;;;;;;;2067001;28;19960;-88
2023/03/18 00:09:16;;;;;;;;;;;;;;;;;;2066862;28;19949;-88
2023/03/18 00:10:17;;;;;;;;;;;;;;;;;;2066419;28;20317;-88
2023/03/18 00:11:18;;;;;;;;;;;;;;;;;;2081728;28;20355;-88
2023/03/18 00:12:19;;;;;;;;;;;;;;;;;;2081548;28;20126;-88
2023/03/18 00:13:19;;;;;;;;;;;;;;;;;;2071634;28;19917;-88
2023/03/18 00:14:19;;;;;;;;;;;;;;;;;;2067942;28;19933;-88
2023/03/18 00:15:20;;;;;;;;;;;;;;;;;;2076078;28;19924;-88
2023/03/18 00:16:20;;;;;;;;;;;;;;;;;;2082628;28;20525;-88
2023/03/18 00:17:21;;;;;;;;;;;;;;;;;;2086906;28;19974;-89
2023/03/18 00:18:21;;;;;;;;;;;;;;;;;;2086010;28;19919;-88
2023/03/18 00:19:23;;;;;;;;;;;;;;;;;;2067384;28;19979;-88
2023/03/18 00:20:37;;;;;;;;;;;;;;;;;;2081723;28;20339;-88
2023/03/18 00:21:37;;;;;;;;;;;;;;;;;;2078398;28;19944;-88
2023/03/18 00:22:38;;;;;;;;;;;;;;;;;;2073416;28;19947;-89
2023/03/18 00:23:38;;;;;;;;;;;;;;;;;;2065286;28;20341;-89
2023/03/18 00:24:39;;;;;;;;;;;;;;;;;;2065711;28;20032;-88
2023/03/18 00:25:41;;;;;;;;;;;;;;;;;;2082006;28;19920;-88
2023/03/18 00:26:42;;;;;;;;;;;;;;;;;;2084671;28;19943;-89
2023/03/18 00:27:43;;;;;;;;;;;;;;;;;;2071513;28;19982;-87
2023/03/18 00:28:43;;;;;;;;;;;;;;;;;;2079350;28;20023;-87
2023/03/18 00:29:44;;;;;;;;;;;;;;;;;;2079464;28;19921;-87
2023/03/18 00:30:46;;;;;;;;;;;;;;;;;;2068993;28;20280;-88
2023/03/18 00:31:46;;;;;;;;;;;;;;;;;;2073443;28;20391;-88
2023/03/18 00:32:47;;;;;;;;;;;;;;;;;;2065592;28;19924;-88
2023/03/18 00:33:49;;;;;;;;;;;;;;;;;;2071620;28;19997;-89
2023/03/18 00:34:49;;;;;;;;;;;;;;;;;;2084521;28;19909;-89
2023/03/18 00:35:49;;;;;;;;;;;;;;;;;;2091768;28;20163;-89
2023/03/18 00:36:55;;;;;;;;;;;;;;;;;;2081127;28;19956;-87
2023/03/18 00:37:57;;;;;;;;;;;;;;;;;;2069584;28;19964;-88
2023/03/18 00:38:58;;;;;;;;;;;;;;;;;;2059178;28;19937;-88
2023/03/18 00:40:05;;;;;;;;;;;;;;;;;;2065736;28;19950;-87
2023/03/18 00:41:14;;;;;;;;;;;;;;;;;;2068485;28;19909;-87
2023/03/18 00:42:14;;;;;;;;;;;;;;;;;;2081655;28;19909;-87
2023/03/18 00:43:15;;;;;;;;;;;;;;;;;;2080770;28;19909;-88
2023/03/18 00:44:15;;;;;;;;;;;;;;;;;;2072431;28;19960;-87
2023/03/18 00:45:16;;;;;;;;;;;;;;;;;;2064459;28;19925;-88
2023/03/18 00:46:21;;;;;;;;;;;;;;;;;;2068027;28;19960;-86
2023/03/18 00:47:22;;;;;;;;;;;;;;;;;;2082900;28;19909;-89
2023/03/18 00:48:22;;;;;;;;;;;;;;;;;;2080494;28;20117;-89
2023/03/18 00:49:23;;;;;;;;;;;;;;;;;;2072604;28;20086;-89
2023/03/18 00:50:24;;;;;;;;;;;;;;;;;;2080199;28;19989;-89
2023/03/18 00:51:25;;;;;;;;;;;;;;;;;;2080388;28;19948;-89
2023/03/18 00:52:28;;;;;;;;;;;;;;;;;;2071965;28;19999;-89
2023/03/18 00:53:29;;;;;;;;;;;;;;;;;;2068044;28;19995;-95
2023/03/18 00:54:29;;;;;;;;;;;;;;;;;;2066746;28;19910;-96
2023/03/18 00:55:32;;;;;;;;;;;;;;;;;;2063755;28;19910;-96
2023/03/18 00:56:36;;;;;;;;;;;;;;;;;;2075688;28;19941;-96
2023/03/18 00:57:36;;;;;;;;;;;;;;;;;;2079751;28;19920;-90
2023/03/18 00:58:37;;;;;;;;;;;;;;;;;;2080171;28;19959;-90
2023/03/18 00:59:37;;;;;;;;;;;;;;;;;;2072807;28;19920;-90
2023/03/18 01:00:38;;;;;;;;;;;;;;;;;;2064401;28;20131;-90
2023/03/18 01:01:39;;;;;;;;;;;;;;;;;;2063691;28;20341;-90
2023/03/18 01:02:40;;;;;;;;;;;;;;;;;;2063464;28;19910;-91
2023/03/18 01:03:41;;;;;;;;;;;;;;;;;;2063583;28;19909;-90
2023/03/18 01:04:41;;;;;;;;;;;;;;;;;;2071689;28;20242;-90
2023/03/18 01:05:42;;;;;;;;;;;;;;;;;;2080399;28;20026;-90
2023/03/18 01:06:43;;;;;;;;;;;;;;;;;;2071644;28;19959;-90
2023/03/18 01:07:43;;;;;;;;;;;;;;;;;;2071855;28;19916;-89
2023/03/18 01:08:44;;;;;;;;;;;;;;;;;;2063837;28;19991;-89
2023/03/18 01:09:44;;;;;;;;;;;;;;;;;;2063824;28;20333;-89
2023/03/18 01:10:44;;;;;;;;;;;;;;;;;;1725719;28;10001760;-89
2023/03/18 01:11:44;;;;;;;;;;;;;;;;;;2063720;28;19914;-89
2023/03/18 01:12:46;;;;;;;;;;;;;;;;;;2063671;28;20008;-89
2023/03/18 01:13:46;;;;;;;;;;;;;;;;;;2063706;28;19910;-89
2023/03/18 01:14:47;;;;;;;;;;;;;;;;;;2071808;28;19923;-89
2023/03/18 01:15:47;;;;;;;;;;;;;;;;;;2072097;28;20088;-89
2023/03/18 01:16:47;;;;;;;;;;;;;;;;;;2057344;28;20005;-91
2023/03/18 01:17:48;;;;;;;;;;;;;;;;;;2063604;28;19909;-91
2023/03/18 01:18:48;;;;;;;;;;;;;;;;;;2064575;28;19917;-91
2023/03/18 01:19:49;;;;;;;;;;;;;;;;;;2079797;28;19909;-91
2023/03/18 01:20:49;;;;;;;;;;;;;;;;;;2080061;28;19949;-91
2023/03/18 01:21:50;;;;;;;;;;;;;;;;;;2071629;28;19937;-91
2023/03/18 01:22:50;;;;;;;;;;;;;;;;;;2063580;28;19913;-91
2023/03/18 01:23:51;;;;;;;;;;;;;;;;;;2079768;28;19952;-90
2023/03/18 01:24:51;;;;;;;;;;;;;;;;;;2079938;28;20000;-89
2023/03/18 01:25:51;;;;;;;;;;;;;;;;;;2071753;28;19965;-91
2023/03/18 01:26:52;;;;;;;;;;;;;;;;;;2063552;28;19910;-90
2023/03/18 01:27:52;;;;;;;;;;;;;;;;;;2063613;28;20155;-90
2023/03/18 01:28:53;;;;;;;;;;;;;;;;;;2063694;28;19910;-90
2023/03/18 01:29:53;;;;;;;;;;;;;;;;;;2063489;28;19941;-91
2023/03/18 01:30:54;;;;;;;;;;;;;;;;;;2063380;28;19910;-91
2023/03/18 01:31:55;;;;;;;;;;;;;;;;;;2055564;28;19917;-89
2023/03/18 01:32:56;;;;;;;;;;;;;;;;;;2056736;28;19910;-88
2023/03/18 01:33:56;;;;;;;;;;;;;;;;;;2066765;28;20100;-89
2023/03/18 01:34:57;;;;;;;;;;;;;;;;;;2071880;28;19913;-91
2023/03/18 01:35:58;;;;;;;;;;;;;;;;;;2063671;28;19917;-90
2023/03/18 01:36:58;;;;;;;;;;;;;;;;;;2064083;28;19921;-90
2023/03/18 01:38:00;;;;;;;;;;;;;;;;;;2064415;28;20008;-90
2023/03/18 01:39:00;;;;;;;;;;;;;;;;;;2071471;28;19909;-90
2023/03/18 01:40:00;;;;;;;;;;;;;;;;;;2066437;28;19910;-90
2023/03/18 01:41:01;;;;;;;;;;;;;;;;;;2069539;28;19909;-88
2023/03/18 01:42:02;;;;;;;;;;;;;;;;;;2068049;28;19933;-89
2023/03/18 01:43:05;;;;;;;;;;;;;;;;;;2072005;28;19909;-89
2023/03/18 01:44:12;;;;;;;;;;;;;;;;;;2079898;28;19920;-89
2023/03/18 01:45:21;;;;;;;;;;;;;;;;;;2079343;28;19913;-89
2023/03/18 01:46:42;;;;;;;;;;;;;;;;;;2070615;28;19914;-89
2023/03/18 01:47:45;;;;;;;;;;;;;;;;;;2066398;28;19913;-91
2023/03/18 01:48:46;;;;;;;;;;;;;;;;;;2063757;28;19910;-89
2023/03/18 01:49:48;;;;;;;;;;;;;;;;;;2053441;28;20023;-89
2023/03/18 01:51:02;;;;;;;;;;;;;;;;;;2062953;28;19917;-89
2023/03/18 01:52:07;;;;;;;;;;;;;;;;;;2066806;28;19917;-90
2023/03/18 01:53:09;;;;;;;;;;;;;;;;;;2079580;28;19917;-90
2023/03/18 01:54:11;;;;;;;;;;;;;;;;;;2079586;28;19979;-89
2023/03/18 01:55:14;;;;;;;;;;;;;;;;;;2064170;28;19910;-90
2023/03/18 01:56:14;;;;;;;;;;;;;;;;;;2064274;28;19964;-89
2023/03/18 01:57:16;;;;;;;;;;;;;;;;;;2079892;28;20445;-88
2023/03/18 01:58:23;;;;;;;;;;;;;;;;;;2079712;28;19909;-90
2023/03/18 01:59:25;;;;;;;;;;;;;;;;;;2063688;28;20364;-89
2023/03/18 02:00:25;;;;;;;;;;;;;;;;;;2063557;28;19945;-89
2023/03/18 02:01:29;;;;;;;;;;;;;;;;;;2072262;28;19909;-89
2023/03/18 02:02:31;;;;;;;;;;;;;;;;;;2071892;28;19921;-89
2023/03/18 02:03:33;;;;;;;;;;;;;;;;;;2063525;28;19993;-90
2023/03/18 02:04:40;;;;;;;;;;;;;;;;;;2079355;28;19909;-90
2023/03/18 02:05:42;;;;;;;;;;;;;;;;;;2079069;28;19912;-90
2023/03/18 02:06:42;;;;;;;;;;;;;;;;;;2071360;28;19916;-90
2023/03/18 02:07:44;;;;;;;;;;;;;;;;;;2064091;28;20409;-90
2023/03/18 02:08:44;;;;;;;;;;;;;;;;;;2071472;28;19916;-90
2023/03/18 02:09:45;;;;;;;;;;;;;;;;;;2063089;28;19918;-90
2023/03/18 02:10:46;;;;;;;;;;;;;;;;;;2063308;28;19925;-89
2023/03/18 02:11:48;;;;;;;;;;;;;;;;;;2063092;28;20013;-89
2023/03/18 02:12:59;;;;;;;;;;;;;;;;;;2063166;28;19993;-89
2023/03/18 02:14:00;;;;;;;;;;;;;;;;;;2079492;28;20411;-89
2023/03/18 02:16:22;;;;;;;;;;;;;;;;;;2214639;23;20399;-89
2023/03/18 02:17:24;;;;;;;;;;;;;;;;;;2079525;28;19917;-88
2023/03/18 02:18:33;;;;;;;;;;;;;;;;;;2079469;28;19909;-90
2023/03/18 02:19:36;;;;;;;;;;;;;;;;;;2070401;28;19916;-88
2023/03/18 02:20:47;;;;;;;;;;;;;;;;;;2064043;28;19960;-90
2023/03/18 02:21:54;;;;;;;;;;;;;;;;;;2082001;28;19967;-90
2023/03/18 02:23:06;;;;;;;;;;;;;;;;;;2078764;28;20248;-90
2023/03/18 02:24:25;;;;;;;;;;;;;;;;;;1719595;28;10133080;-90
2023/03/18 02:25:57;;;;;;;;;;;;;;;;;;2071480;28;19964;-89
2023/03/18 02:27:17;;;;;;;;;;;;;;;;;;2054999;28;20338;-89
2023/03/18 02:28:19;;;;;;;;;;;;;;;;;;2063097;28;20317;-89
2023/03/18 02:29:20;;;;;;;;;;;;;;;;;;2063381;28;20443;-92
2023/03/18 02:30:24;;;;;;;;;;;;;;;;;;2063203;28;19933;-89
2023/03/18 02:31:25;;;;;;;;;;;;;;;;;;2071411;28;19996;-90
2023/03/18 02:32:29;;;;;;;;;;;;;;;;;;2079490;28;20347;-90
2023/03/18 02:33:33;;;;;;;;;;;;;;;;;;2071859;28;19967;-89
2023/03/18 02:34:34;;;;;;;;;;;;;;;;;;2081084;28;19932;-90
2023/03/18 02:35:35;;;;;;;;;;;;;;;;;;2084975;28;19916;-87
2023/03/18 02:36:35;;;;;;;;;;;;;;;;;;2083312;28;19916;-89
2023/03/18 02:37:36;;;;;;;;;;;;;;;;;;2079589;28;20331;-89
2023/03/18 02:38:40;;;;;;;;;;;;;;;;;;2071846;28;19913;-88
2023/03/18 02:39:41;;;;;;;;;;;;;;;;;;2063924;28;19993;-89
2023/03/18 02:40:41;;;;;;;;;;;;;;;;;;2079294;28;20000;-89
2023/03/18 02:41:43;;;;;;;;;;;;;;;;;;1750556;28;10243399;-90
2023/03/18 02:42:44;;;;;;;;;;;;;;;;;;2071135;28;19975;-90
2023/03/18 02:43:45;;;;;;;;;;;;;;;;;;2063034;28;20302;-89
2023/03/18 02:44:47;;;;;;;;;;;;;;;;;;2062841;28;19956;-90
2023/03/18 02:45:56;;;;;;;;;;;;;;;;;;2063198;28;19929;-90
2023/03/18 02:46:59;;;;;;;;;;;;;;;;;;2079147;28;19916;-90
2023/03/18 02:48:02;;;;;;;;;;;;;;;;;;2078816;28;19931;-90
2023/03/18 02:49:03;;;;;;;;;;;;;;;;;;2079463;28;19909;-90
2023/03/18 02:50:04;;;;;;;;;;;;;;;;;;2079152;28;19909;-90
2023/03/18 02:51:08;;;;;;;;;;;;;;;;;;2071063;28;20419;-90
2023/03/18 02:52:08;;;;;;;;;;;;;;;;;;2071208;28;19909;-90
2023/03/18 02:53:10;;;;;;;;;;;;;;;;;;2071170;28;20350;-90
2023/03/18 02:54:12;;;;;;;;;;;;;;;;;;2071169;28;19968;-90
2023/03/18 02:55:13;;;;;;;;;;;;;;;;;;2071105;28;19944;-90
2023/03/18 02:56:13;;;;;;;;;;;;;;;;;;2063222;28;19910;-90
2023/03/18 02:57:13;;;;;;;;;;;;;;;;;;2065953;28;19910;-90
2023/03/18 02:58:14;;;;;;;;;;;;;;;;;;2081270;28;19913;-90
2023/03/18 02:59:14;;;;;;;;;;;;;;;;;;2089520;28;19972;-90
2023/03/18 03:00:15;;;;;;;;;;;;;;;;;;2080974;28;19981;-90
2023/03/18 03:01:15;;;;;;;;;;;;;;;;;;2067574;28;20288;-90
2023/03/18 03:02:15;;;;;;;;;;;;;;;;;;2066683;28;20332;-91
2023/03/18 03:03:16;;;;;;;;;;;;;;;;;;2067618;28;19909;-90
2023/03/18 03:04:17;;;;;;;;;;;;;;;;;;2064295;28;20053;-90
2023/03/18 03:05:17;;;;;;;;;;;;;;;;;;2079325;28;19913;-90
2023/03/18 03:06:19;;;;;;;;;;;;;;;;;;2080768;28;20272;-89
2023/03/18 03:07:20;;;;;;;;;;;;;;;;;;2078851;28;20299;-90
2023/03/18 03:08:20;;;;;;;;;;;;;;;;;;2079149;28;19920;-90
2023/03/18 03:09:21;;;;;;;;;;;;;;;;;;2070957;28;19910;-91
2023/03/18 03:10:22;;;;;;;;;;;;;;;;;;2070922;28;20013;-90
2023/03/18 03:11:23;;;;;;;;;;;;;;;;;;2063676;28;19910;-90
2023/03/18 03:12:23;;;;;;;;;;;;;;;;;;2063911;28;19972;-90
2023/03/18 03:13:23;;;;;;;;;;;;;;;;;;2070733;28;19909;-90
2023/03/18 03:14:24;;;;;;;;;;;;;;;;;;2062691;28;20008;-89
2023/03/18 03:15:25;;;;;;;;;;;;;;;;;;2063288;28;20000;-90
2023/03/18 03:16:27;;;;;;;;;;;;;;;;;;2062743;28;20150;-90
2023/03/18 03:17:27;;;;;;;;;;;;;;;;;;2071599;28;19909;-89
2023/03/18 03:18:29;;;;;;;;;;;;;;;;;;2088928;28;19913;-89
2023/03/18 03:19:29;;;;;;;;;;;;;;;;;;2080727;28;20188;-89
2023/03/18 03:20:36;;;;;;;;;;;;;;;;;;2081568;28;20007;-88
2023/03/18 03:21:36;;;;;;;;;;;;;;;;;;2069141;28;19910;-88
2023/03/18 03:22:37;;;;;;;;;;;;;;;;;;2066968;28;19909;-89
2023/03/18 03:23:38;;;;;;;;;;;;;;;;;;2058186;28;19964;-88
2023/03/18 03:24:38;;;;;;;;;;;;;;;;;;2066742;28;19972;-88
2023/03/18 03:25:39;;;;;;;;;;;;;;;;;;2075065;28;19995;-88
2023/03/18 03:26:39;;;;;;;;;;;;;;;;;;2080025;28;20015;-88
2023/03/18 03:27:40;;;;;;;;;;;;;;;;;;2078974;28;19942;-87
2023/03/18 03:28:41;;;;;;;;;;;;;;;;;;2070977;28;19991;-87
2023/03/18 03:29:42;;;;;;;;;;;;;;;;;;2071166;28;19917;-87
2023/03/18 03:30:43;;;;;;;;;;;;;;;;;;2082374;28;19913;-85
2023/03/18 03:31:44;;;;;;;;;;;;;;;;;;2080067;28;19909;-87
2023/03/18 03:32:44;;;;;;;;;;;;;;;;;;2070835;28;20428;-88
2023/03/18 03:33:44;;;;;;;;;;;;;;;;;;2071516;28;19909;-88
2023/03/18 03:34:45;;;;;;;;;;;;;;;;;;2078765;28;19967;-87
2023/03/18 03:35:45;;;;;;;;;;;;;;;;;;2078942;28;20294;-87
2023/03/18 03:36:46;;;;;;;;;;;;;;;;;;2070818;28;20004;-87
2023/03/18 03:37:46;;;;;;;;;;;;;;;;;;2070732;28;19920;-87
2023/03/18 03:38:47;;;;;;;;;;;;;;;;;;2087004;28;19916;-87
2023/03/18 03:39:47;;;;;;;;;;;;;;;;;;2087470;28;19962;-87
2023/03/18 03:40:48;;;;;;;;;;;;;;;;;;2078748;28;20541;-87
2023/03/18 03:41:48;;;;;;;;;;;;;;;;;;2078855;28;19953;-88
2023/03/18 03:42:48;;;;;;;;;;;;;;;;;;2070919;28;19964;-88
2023/03/18 03:43:48;;;;;;;;;;;;;;;;;;2078956;28;19913;-87
2023/03/18 03:44:49;;;;;;;;;;;;;;;;;;2087200;28;19920;-87
2023/03/18 03:45:49;;;;;;;;;;;;;;;;;;2071580;28;20535;-88
2023/03/18 03:46:50;;;;;;;;;;;;;;;;;;2079191;28;19959;-88
2023/03/18 03:47:51;;;;;;;;;;;;;;;;;;2079256;28;19909;-88
2023/03/18 03:48:51;;;;;;;;;;;;;;;;;;2071490;28;19909;-88
2023/03/18 03:49:52;;;;;;;;;;;;;;;;;;2070702;28;20355;-88
2023/03/18 03:50:52;;;;;;;;;;;;;;;;;;2071076;28;19909;-88
2023/03/18 03:51:52;;;;;;;;;;;;;;;;;;2070703;28;19915;-88
2023/03/18 03:52:53;;;;;;;;;;;;;;;;;;2071617;28;19991;-88
2023/03/18 03:53:53;;;;;;;;;;;;;;;;;;2071899;28;19909;-88
2023/03/18 03:54:55;;;;;;;;;;;;;;;;;;2079470;28;19924;-88
2023/03/18 03:55:55;;;;;;;;;;;;;;;;;;2071242;28;20352;-88
2023/03/18 03:56:56;;;;;;;;;;;;;;;;;;2070835;28;20042;-88
2023/03/18 03:57:56;;;;;;;;;;;;;;;;;;2070886;28;20000;-88
2023/03/18 03:58:56;;;;;;;;;;;;;;;;;;2070653;28;19909;-89
2023/03/18 03:59:57;;;;;;;;;;;;;;;;;;2070887;28;20281;-88
2023/03/18 04:00:57;;;;;;;;;;;;;;;;;;2071491;28;19916;-88
2023/03/18 04:01:57;;;;;;;;;;;;;;;;;;2078605;28;20474;-88
2023/03/18 04:02:58;;;;;;;;;;;;;;;;;;2078877;28;19916;-88
2023/03/18 04:03:59;;;;;;;;;;;;;;;;;;2071024;28;19910;-88
2023/03/18 04:04:59;;;;;;;;;;;;;;;;;;1719397;28;10166757;-88
2023/03/18 04:06:00;;;;;;;;;;;;;;;;;;2079011;28;20119;-88
2023/03/18 04:07:00;;;;;;;;;;;;;;;;;;2071597;28;19920;-88
2023/03/18 04:08:00;;;;;;;;;;;;;;;;;;2071419;28;19917;-89
2023/03/18 04:09:02;;;;;;;;;;;;;;;;;;2078811;28;19923;-88
2023/03/18 04:10:03;;;;;;;;;;;;;;;;;;2078996;28;19909;-88
2023/03/18 04:11:03;;;;;;;;;;;;;;;;;;2078947;28;19953;-89
2023/03/18 04:12:04;;;;;;;;;;;;;;;;;;2087317;28;19909;-88
2023/03/18 04:13:04;;;;;;;;;;;;;;;;;;2078775;28;19909;-88
2023/03/18 04:14:05;;;;;;;;;;;;;;;;;;2080538;28;19909;-89
2023/03/18 04:15:06;;;;;;;;;;;;;;;;;;2072598;28;19909;-89
2023/03/18 04:16:06;;;;;;;;;;;;;;;;;;2071846;28;20256;-89
2023/03/18 04:17:07;;;;;;;;;;;;;;;;;;2072693;28;19932;-89
2023/03/18 04:18:07;;;;;;;;;;;;;;;;;;2073170;28;19909;-88
2023/03/18 04:19:08;;;;;;;;;;;;;;;;;;2080748;28;19917;-88
2023/03/18 04:20:11;;;;;;;;;;;;;;;;;;2080556;28;20384;-89
2023/03/18 04:21:11;;;;;;;;;;;;;;;;;;2072277;28;20309;-89
2023/03/18 04:22:11;;;;;;;;;;;;;;;;;;2080418;28;19991;-89
2023/03/18 04:23:13;;;;;;;;;;;;;;;;;;2080628;28;19924;-89
2023/03/18 04:24:13;;;;;;;;;;;;;;;;;;2073013;28;19981;-88
2023/03/18 04:25:13;;;;;;;;;;;;;;;;;;2075591;28;19913;-89
2023/03/18 04:26:14;;;;;;;;;;;;;;;;;;2082383;28;20484;-87
2023/03/18 04:27:14;;;;;;;;;;;;;;;;;;2080293;28;19966;-88
2023/03/18 04:28:15;;;;;;;;;;;;;;;;;;2072296;28;20264;-88
2023/03/18 04:29:15;;;;;;;;;;;;;;;;;;2072079;28;19991;-89
2023/03/18 04:30:16;;;;;;;;;;;;;;;;;;2072129;28;19913;-89
2023/03/18 04:31:16;;;;;;;;;;;;;;;;;;2071980;28;19925;-87
2023/03/18 04:32:17;;;;;;;;;;;;;;;;;;2072828;28;19960;-88
2023/03/18 04:33:18;;;;;;;;;;;;;;;;;;2073150;28;19909;-88
2023/03/18 04:34:19;;;;;;;;;;;;;;;;;;2080414;28;19943;-89
2023/03/18 04:35:20;;;;;;;;;;;;;;;;;;2080322;28;19912;-88
2023/03/18 04:36:20;;;;;;;;;;;;;;;;;;2072068;28;19917;-89
2023/03/18 04:37:20;;;;;;;;;;;;;;;;;;2080450;28;20115;-89
2023/03/18 04:38:20;;;;;;;;;;;;;;;;;;2088528;28;19931;-88
2023/03/18 04:39:21;;;;;;;;;;;;;;;;;;2080464;28;20333;-88
2023/03/18 04:40:22;;;;;;;;;;;;;;;;;;2072224;28;19909;-88
2023/03/18 04:41:22;;;;;;;;;;;;;;;;;;2072149;28;19996;-88
2023/03/18 04:42:22;;;;;;;;;;;;;;;;;;2072114;28;20273;-89
2023/03/18 04:43:23;;;;;;;;;;;;;;;;;;2064061;28;19913;-88
2023/03/18 04:44:33;;;;;;;;;;;;;;;;;;2020654;28;10385306;-88
2023/03/18 04:45:34;;;;;;;;;;;;;;;;;;2075584;28;19909;-88
2023/03/18 04:46:35;;;;;;;;;;;;;;;;;;2080099;28;19955;-88
2023/03/18 04:47:36;;;;;;;;;;;;;;;;;;2080348;28;20248;-88
2023/03/18 04:48:37;;;;;;;;;;;;;;;;;;2079960;28;19916;-87
2023/03/18 04:49:38;;;;;;;;;;;;;;;;;;2072053;28;20004;-89
2023/03/18 04:50:38;;;;;;;;;;;;;;;;;;2072207;28;20059;-88
2023/03/18 04:51:39;;;;;;;;;;;;;;;;;;2080408;28;20443;-89
2023/03/18 04:52:40;;;;;;;;;;;;;;;;;;2088427;28;20016;-88
2023/03/18 04:53:41;;;;;;;;;;;;;;;;;;2088440;28;19948;-87
2023/03/18 04:54:42;;;;;;;;;;;;;;;;;;2080008;28;19909;-88
2023/03/18 04:55:42;;;;;;;;;;;;;;;;;;2072617;28;20296;-88
2023/03/18 04:56:43;;;;;;;;;;;;;;;;;;2072604;28;19920;-88
2023/03/18 04:57:43;;;;;;;;;;;;;;;;;;2088125;28;19912;-88
2023/03/18 04:58:44;;;;;;;;;;;;;;;;;;2088190;28;19915;-88
2023/03/18 04:59:44;;;;;;;;;;;;;;;;;;2080371;28;20434;-88
2023/03/18 05:00:45;;;;;;;;;;;;;;;;;;2071864;28;20044;-88
2023/03/18 05:01:45;;;;;;;;;;;;;;;;;;2072201;28;19909;-88
2023/03/18 05:02:45;;;;;;;;;;;;;;;;;;2080019;28;19916;-89
2023/03/18 05:03:46;;;;;;;;;;;;;;;;;;2082188;28;19909;-90
2023/03/18 05:04:46;;;;;;;;;;;;;;;;;;2080764;28;20372;-89
2023/03/18 05:05:48;;;;;;;;;;;;;;;;;;2080379;28;19909;-90
2023/03/18 05:06:48;;;;;;;;;;;;;;;;;;2080405;28;20008;-89
2023/03/18 05:07:48;;;;;;;;;;;;;;;;;;2088486;28;19915;-89
2023/03/18 05:08:50;;;;;;;;;;;;;;;;;;2080442;28;19913;-89
2023/03/18 05:09:50;;;;;;;;;;;;;;;;;;2080279;28;19975;-88
2023/03/18 05:10:50;;;;;;;;;;;;;;;;;;2072307;28;19909;-90
2023/03/18 05:11:50;;;;;;;;;;;;;;;;;;2079977;28;19913;-88
2023/03/18 05:12:51;;;;;;;;;;;;;;;;;;2080144;28;19963;-88
2023/03/18 05:13:51;;;;;;;;;;;;;;;;;;2073283;28;20327;-89
2023/03/18 05:14:52;;;;;;;;;;;;;;;;;;2073349;28;19910;-89
2023/03/18 05:15:52;;;;;;;;;;;;;;;;;;2080081;28;19991;-89
2023/03/18 05:16:52;;;;;;;;;;;;;;;;;;2080468;28;20268;-88
2023/03/18 05:17:53;;;;;;;;;;;;;;;;;;2073000;28;20004;-89
2023/03/18 05:18:53;;;;;;;;;;;;;;;;;;2080760;28;19909;-89
2023/03/18 05:19:53;;;;;;;;;;;;;;;;;;2083518;28;19952;-86
2023/03/18 05:20:53;;;;;;;;;;;;;;;;;;2092099;28;20121;-88
2023/03/18 05:21:54;;;;;;;;;;;;;;;;;;2088922;28;19963;-88
2023/03/18 05:22:55;;;;;;;;;;;;;;;;;;2073112;28;19983;-88
2023/03/18 05:23:55;;;;;;;;;;;;;;;;;;2072408;28;19909;-88
2023/03/18 05:24:57;;;;;;;;;;;;;;;;;;2072433;28;19923;-88
2023/03/18 05:25:57;;;;;;;;;;;;;;;;;;2072676;28;20004;-87
2023/03/18 05:26:58;;;;;;;;;;;;;;;;;;2080731;28;19959;-88
2023/03/18 05:27:58;;;;;;;;;;;;;;;;;;2080119;28;20438;-88
2023/03/18 05:28:58;;;;;;;;;;;;;;;;;;2072880;28;19997;-89
2023/03/18 05:29:58;;;;;;;;;;;;;;;;;;2079742;28;20003;-88
2023/03/18 05:30:59;;;;;;;;;;;;;;;;;;2071691;28;20026;-89
2023/03/18 05:31:59;;;;;;;;;;;;;;;;;;2071433;28;19975;-88
2023/03/18 05:32:59;;;;;;;;;;;;;;;;;;2071587;28;19920;-88
2023/03/18 05:34:00;;;;;;;;;;;;;;;;;;2072459;28;20020;-88
2023/03/18 05:35:02;;;;;;;;;;;;;;;;;;2072684;28;19925;-87
2023/03/18 05:36:03;;;;;;;;;;;;;;;;;;2087649;28;19955;-87
2023/03/18 05:37:03;;;;;;;;;;;;;;;;;;2088070;28;20438;-88
2023/03/18 05:38:05;;;;;;;;;;;;;;;;;;2072435;28;19916;-89
2023/03/18 05:39:05;;;;;;;;;;;;;;;;;;2079732;28;19956;-88
2023/03/18 05:40:10;;;;;;;;;;;;;;;;;;2079716;28;19944;-88
2023/03/18 05:41:11;;;;;;;;;;;;;;;;;;2076383;28;19948;-88
2023/03/18 05:42:13;;;;;;;;;;;;;;;;;;2090311;28;19909;-89
2023/03/18 05:43:13;;;;;;;;;;;;;;;;;;2090672;28;19952;-89
2023/03/18 05:44:13;;;;;;;;;;;;;;;;;;2087405;28;20022;-88
2023/03/18 05:45:14;;;;;;;;;;;;;;;;;;2073557;28;20407;-89
2023/03/18 05:46:15;;;;;;;;;;;;;;;;;;2072695;28;19941;-88
2023/03/18 05:47:15;;;;;;;;;;;;;;;;;;2080458;28;19976;-88
2023/03/18 05:48:16;;;;;;;;;;;;;;;;;;2080123;28;20070;-88
2023/03/18 05:49:19;;;;;;;;;;;;;;;;;;2071589;28;19916;-89
2023/03/18 05:50:30;;;;;;;;;;;;;;;;;;2079903;28;19924;-89
2023/03/18 05:51:31;;;;;;;;;;;;;;;;;;2079913;28;19948;-88
2023/03/18 05:52:31;;;;;;;;;;;;;;;;;;2080104;28;19917;-88
2023/03/18 05:53:32;;;;;;;;;;;;;;;;;;2073062;28;19957;-89
2023/03/18 05:54:32;;;;;;;;;;;;;;;;;;2072866;28;19914;-88
2023/03/18 05:55:33;;;;;;;;;;;;;;;;;;2080031;28;19909;-89
2023/03/18 05:56:33;;;;;;;;;;;;;;;;;;2079971;28;19949;-88
2023/03/18 05:57:34;;;;;;;;;;;;;;;;;;2071784;28;20332;-88
2023/03/18 05:58:34;;;;;;;;;;;;;;;;;;2071606;28;19909;-88
2023/03/18 05:59:34;;;;;;;;;;;;;;;;;;2079410;28;19909;-88
2023/03/18 06:00:36;;;;;;;;;;;;;;;;;;2072770;28;19960;-88
2023/03/18 06:01:36;;;;;;;;;;;;;;;;;;2075609;28;20565;-89
2023/03/18 06:02:37;;;;;;;;;;;;;;;;;;2099030;28;19905;-89
2023/03/18 06:03:38;;;;;;;;;;;;;;;;;;2098923;28;19967;-89
2023/03/18 06:04:39;;;;;;;;;;;;;;;;;;2089625;28;19932;-88
2023/03/18 06:05:39;;;;;;;;;;;;;;;;;;2082134;28;19919;-89
2023/03/18 06:06:39;;;;;;;;;;;;;;;;;;2090139;28;20418;-89
2023/03/18 06:07:40;;;;;;;;;;;;;;;;;;2072700;28;20451;-88
2023/03/18 06:10:09;;;;;;;26.67;16.13;;;;;;;;;;2111596;27;20163;-88
2023/03/18 06:11:10;;;;;;;31.40;19.25;;;;;;;;;;2111224;28;20035;-90
2023/03/18 06:12:10;;;;;;;;;;;;;;;;;;2120105;28;20589;-90
2023/03/18 06:13:10;;;;;;;29.77;18.87;;;;;;;;;;2128008;27;19907;-89
2023/03/18 06:14:11;;;;;;;;;;;;;;;;;;2117359;27;20038;-88
2023/03/18 06:15:12;;;;;;;33.57;20.13;;;;;;;;;;2118796;28;19926;-88
2023/03/18 06:16:14;;;;;;;35.88;22.75;;;;;;;;;;2116969;28;20422;-88
2023/03/18 06:17:14;;;;;;;;;;;;;;;;;;2111902;28;20043;-89
2023/03/18 06:18:15;;;;;;;39.07;22.03;;;;;;;;;;2112122;28;19920;-90
2023/03/18 06:19:24;;;;;;;34.47;22.98;;;;;;;;;;2111627;28;20023;-88
2023/03/18 06:20:27;;;;;;;34.67;23.40;;;;;;;;;;2110407;28;20122;-89
2023/03/18 06:21:30;;;;;;;39.28;21.23;;;;;;;;;;2110204;28;20088;-90
2023/03/18 06:22:31;;;;;;;31.30;21.48;;;;;;;;;;2110372;28;20077;-91
2023/03/18 06:23:32;;;;;;;;;;;;;;;;;;2102639;28;20044;-90
2023/03/18 06:24:33;;;;;;;25.05;17.02;;;;;;;;;;2110572;28;20358;-89
2023/03/18 06:25:33;;;;;;;28.70;18.38;;;;;;;;;;2111530;28;20031;-90
2023/03/18 06:26:34;;;;;;;;;;;;;;;;;;2111339;28;20349;-88
2023/03/18 06:27:38;;;;;;;23.35;14.70;;;;;;;;;;2111462;28;19908;-89
2023/03/18 06:28:40;;;;;;;;;;;;;;;;;;2115208;28;20454;-88
2023/03/18 06:29:40;;;;;;;25.77;15.00;;;;;;;;;;2114227;28;19920;-88
2023/03/18 06:30:40;;;;;;;;;;;;;;;;;;2114263;28;20538;-88
2023/03/18 06:31:42;;;;;;;17.93;12.33;;;;;;;;;;2114560;28;19971;-89
2023/03/18 06:32:43;;;;;;;18.02;12.52;;;;;;;;;;2113061;28;20042;-90
2023/03/18 06:33:45;;;;;;;21.00;14.57;;;;;;;;;;2105431;28;20035;-89
2023/03/18 06:34:45;;;;;;;21.70;13.18;;;;;;;;;;2112869;28;20023;-88
2023/03/18 06:35:47;;;;;;;;;;;;;;;;;;2115441;28;20023;-90
2023/03/18 06:36:47;;;;;;;21.27;12.52;;;;;;;;;;2113922;28;19919;-89
2023/03/18 06:37:47;;;;;;;19.58;13.25;;;;;;;;;;2113637;28;20024;-88
2023/03/18 06:38:48;;;;;;;15.70;11.95;;;;;;;;;;2111069;28;20108;-89
2023/03/18 06:39:48;;;;;;;;;;;;;;;;;;2128360;27;20084;-88
2023/03/18 06:40:50;;;;;;;17.90;11.27;;;;;;;;;;2129477;27;20234;-88
2023/03/18 06:41:51;;;;;;;;;;;;;;;;;;2112187;28;20055;-89
2023/03/18 06:42:52;;;;;;;15.27;10.63;;;;;;;;;;2111297;28;19907;-89
2023/03/18 06:43:53;;;;;;;;;;;;;;;;;;2114064;28;20024;-88
2023/03/18 06:44:53;;;;;;;17.93;11.13;;;;;;;;;;2111523;28;19908;-89
2023/03/18 06:45:53;;;;;;;;;;;;;;;;;;2110772;28;20111;-88
2023/03/18 06:46:54;;;;;;;13.53;9.20;;;;;;;;;;2110511;28;19908;-89
2023/03/18 06:47:55;;;;;;;15.18;10.25;;;;;;;;;;2102043;28;20044;-90
2023/03/18 06:48:56;;;;;;;15.25;9.77;;;;;;;;;;2102648;28;20059;-89
2023/03/18 06:49:57;;;;;;;16.25;9.18;;;;;;;;;;2113247;28;20024;-89
2023/03/18 06:50:57;;;;;;;11.60;8.40;;;;;;;;;;2115099;28;20019;-88
2023/03/18 06:51:58;;;;;;;15.07;8.60;;;;;;;;;;2110581;28;20103;-89
2023/03/18 06:52:59;;;;;;;15.54;8.08;;;;;;;;;;1741454;27;10486755;-90
2023/03/18 06:53:59;;;;;;;10.98;7.50;;;;;;;;;;2110581;28;20105;-90
2023/03/18 06:55:00;;;;;;;13.82;8.63;;;;;;;;;;2110524;28;20169;-91
2023/03/18 06:56:02;;;;;;;11.48;8.02;;;;;;;;;;2110595;28;20094;-90